Time;durP1;ratioP1;P1;durP2;ratioP2;P2;SDS_P1;SDS_P2;PMS_P1;PMS_P2;Temp;Humidity;BMP_temperature;BMP_pressure;BME280_temperature;BME280_humidity;BME280_pressure;Samples;Min_cycle;Max_cycle;Signal;HPM_P1;HPM_P2
2021/11/26 00:02:13;;;;;;;12.00;10.80;;;;;;;;;;4983480;28;24504;-60
2021/11/26 00:04:38;;;;;;;11.38;10.27;;;;;;;;;;4982124;28;24496;-60
2021/11/26 00:07:04;;;;;;;12.10;10.90;;;;;;;;;;4982786;28;24435;-60
2021/11/26 00:09:29;;;;;;;11.35;10.25;;;;;;;;;;4984392;28;24503;-63
2021/11/26 00:11:54;;;;;;;11.63;10.52;;;;;;;;;;4984604;28;24448;-60
2021/11/26 00:14:23;;;;;;;11.23;10.23;;;;;;;;;;4982830;28;24472;-60
2021/11/26 00:16:55;;;;;;;12.27;11.07;;;;;;;;;;4981036;28;24955;-60
2021/11/26 00:19:21;;;;;;;12.80;11.57;;;;;;;;;;4980928;28;24986;-60
2021/11/26 00:21:46;;;;;;;12.20;11.00;;;;;;;;;;4986425;28;24441;-60
2021/11/26 00:24:13;;;;;;;13.80;12.50;;;;;;;;;;4982425;28;24436;-60
2021/11/26 00:26:38;;;;;;;12.83;11.63;;;;;;;;;;4981589;28;24424;-61
2021/11/26 00:29:03;;;;;;;13.33;12.03;;;;;;;;;;4981164;28;24425;-63
2021/11/26 00:31:28;;;;;;;13.00;11.70;;;;;;;;;;4987325;28;24409;-63
2021/11/26 00:33:54;;;;;;;13.00;11.60;;;;;;;;;;4988033;28;25034;-61
2021/11/26 00:36:19;;;;;;;14.00;12.60;;;;;;;;;;4986554;28;24416;-61
2021/11/26 00:38:44;;;;;;;14.60;13.10;;;;;;;;;;4984732;28;24999;-60
2021/11/26 00:41:09;;;;;;;13.70;12.30;;;;;;;;;;4984021;28;24528;-60
2021/11/26 00:43:34;;;;;;;15.13;13.55;;;;;;;;;;4982804;28;24772;-60
2021/11/26 00:45:59;;;;;;;14.70;13.20;;;;;;;;;;4985995;28;24494;-60
2021/11/26 00:48:25;;;;;;;14.40;12.70;;;;;;;;;;4987672;28;25006;-63
2021/11/26 00:50:50;;;;;;;14.50;13.00;;;;;;;;;;4988673;28;24414;-63
2021/11/26 00:53:15;;;;;;;14.00;12.60;;;;;;;;;;4985442;28;24792;-60
2021/11/26 00:55:41;;;;;;;15.10;13.50;;;;;;;;;;4983358;28;24536;-63
2021/11/26 00:58:06;;;;;;;14.43;12.93;;;;;;;;;;4988760;28;24504;-63
2021/11/26 01:00:32;;;;;;;15.20;13.70;;;;;;;;;;4984215;28;24413;-63
2021/11/26 01:02:57;;;;;;;15.05;13.50;;;;;;;;;;4986210;28;24505;-63
2021/11/26 01:05:22;;;;;;;15.50;13.90;;;;;;;;;;4981848;28;24425;-61
2021/11/26 01:07:47;;;;;;;16.10;14.05;;;;;;;;;;4985473;28;24424;-61
2021/11/26 01:10:15;;;;;;;15.70;14.10;;;;;;;;;;4988356;28;24440;-60
2021/11/26 01:12:40;;;;;;;15.35;13.50;;;;;;;;;;4988427;28;24771;-60
2021/11/26 01:15:06;;;;;;;16.13;14.40;;;;;;;;;;4986885;28;25241;-63
2021/11/26 01:17:32;;;;;;;16.70;14.85;;;;;;;;;;4983307;28;24419;-61
2021/11/26 01:19:57;;;;;;;16.43;14.83;;;;;;;;;;4990082;28;24485;-61
2021/11/26 01:22:22;;;;;;;16.73;14.23;;;;;;;;;;4986282;28;24416;-61
2021/11/26 01:24:47;;;;;;;16.10;14.10;;;;;;;;;;4983590;28;24435;-61
2021/11/26 01:27:12;;;;;;;15.43;13.48;;;;;;;;;;4986551;28;24974;-61
2021/11/26 01:29:38;;;;;;;16.33;14.63;;;;;;;;;;4994498;28;24439;-61
2021/11/26 01:32:04;;;;;;;15.75;14.05;;;;;;;;;;4984699;28;24421;-61
2021/11/26 01:34:29;;;;;;;16.77;14.63;;;;;;;;;;4983097;28;24572;-61
2021/11/26 01:36:54;;;;;;;16.40;14.20;;;;;;;;;;4984952;28;24567;-61
2021/11/26 01:39:19;;;;;;;16.73;14.60;;;;;;;;;;4983420;28;24416;-61
2021/11/26 01:41:44;;;;;;;15.90;14.20;;;;;;;;;;4984669;28;24473;-61
2021/11/26 01:44:10;;;;;;;16.50;14.80;;;;;;;;;;4983336;28;24477;-61
2021/11/26 01:46:41;;;;;;;16.03;14.43;;;;;;;;;;4983835;28;24413;-62
2021/11/26 01:49:06;;;;;;;16.05;14.38;;;;;;;;;;4984653;28;24436;-62
2021/11/26 01:51:32;;;;;;;16.10;14.40;;;;;;;;;;4989853;28;24417;-61
2021/11/26 01:53:57;;;;;;;15.90;14.30;;;;;;;;;;4985727;28;24449;-60
2021/11/26 01:56:24;;;;;;;17.03;14.53;;;;;;;;;;4984140;28;24536;-61
2021/11/26 01:58:50;;;;;;;16.02;14.25;;;;;;;;;;4983486;28;24428;-61
2021/11/26 02:01:15;;;;;;;17.42;15.43;;;;;;;;;;4980510;28;24835;-61
2021/11/26 02:03:40;;;;;;;18.10;16.13;;;;;;;;;;4981282;28;25020;-61
2021/11/26 02:06:05;;;;;;;16.10;14.50;;;;;;;;;;4983083;28;24463;-63
2021/11/26 02:08:31;;;;;;;18.80;14.60;;;;;;;;;;4984211;28;24428;-63
2021/11/26 02:10:56;;;;;;;15.55;13.95;;;;;;;;;;4997662;28;24417;-63
2021/11/26 02:13:21;;;;;;;15.60;14.07;;;;;;;;;;4991879;28;24475;-63
2021/11/26 02:15:46;;;;;;;16.23;14.63;;;;;;;;;;4982308;28;24409;-62
2021/11/26 02:18:15;;;;;;;15.97;14.30;;;;;;;;;;4982712;28;24845;-62
2021/11/26 02:20:41;;;;;;;15.55;13.88;;;;;;;;;;4982963;28;24967;-64
2021/11/26 02:23:06;;;;;;;15.60;14.00;;;;;;;;;;4982140;28;24497;-63
2021/11/26 02:25:31;;;;;;;16.23;14.53;;;;;;;;;;4982186;28;24476;-62
2021/11/26 02:27:58;;;;;;;14.80;13.30;;;;;;;;;;4981695;28;24413;-63
2021/11/26 02:30:23;;;;;;;15.52;13.93;;;;;;;;;;4984618;28;24432;-64
2021/11/26 02:32:53;;;;;;;15.33;13.73;;;;;;;;;;4983715;28;25160;-63
2021/11/26 02:35:18;;;;;;;15.50;13.90;;;;;;;;;;4975546;28;24989;-63
2021/11/26 02:37:43;;;;;;;15.07;13.57;;;;;;;;;;4979511;28;24436;-63
2021/11/26 02:40:10;;;;;;;16.17;14.10;;;;;;;;;;4980621;28;24417;-61
2021/11/26 02:42:35;;;;;;;15.27;13.68;;;;;;;;;;4983613;28;24417;-61
2021/11/26 02:45:00;;;;;;;15.20;13.70;;;;;;;;;;4984091;28;24432;-62
2021/11/26 02:47:26;;;;;;;18.00;16.10;;;;;;;;;;4995706;28;24470;-61
2021/11/26 02:49:51;;;;;;;16.03;14.37;;;;;;;;;;4984288;28;24499;-61
2021/11/26 02:52:16;;;;;;;15.57;13.97;;;;;;;;;;4977595;28;24504;-62
2021/11/26 02:54:41;;;;;;;14.00;12.70;;;;;;;;;;4982000;28;24448;-62
2021/11/26 02:57:06;;;;;;;15.20;13.60;;;;;;;;;;4983924;28;24516;-62
2021/11/26 02:59:31;;;;;;;15.65;13.40;;;;;;;;;;4980542;28;24415;-61
2021/11/26 03:01:57;;;;;;;14.93;13.40;;;;;;;;;;4985689;28;24563;-61
2021/11/26 03:04:22;;;;;;;15.77;14.07;;;;;;;;;;4984293;28;24420;-61
2021/11/26 03:06:47;;;;;;;14.13;12.73;;;;;;;;;;4984211;28;24527;-62
2021/11/26 03:09:12;;;;;;;14.83;13.23;;;;;;;;;;4990723;28;24470;-62
2021/11/26 03:11:38;;;;;;;15.17;13.57;;;;;;;;;;4980827;28;24424;-62
2021/11/26 03:14:03;;;;;;;16.00;14.30;;;;;;;;;;4982080;28;24417;-62
2021/11/26 03:16:28;;;;;;;14.53;13.03;;;;;;;;;;4979971;28;24420;-62
2021/11/26 03:18:53;;;;;;;13.95;12.55;;;;;;;;;;4985776;28;24495;-62
2021/11/26 03:21:19;;;;;;;16.07;13.40;;;;;;;;;;4990024;28;24433;-62
2021/11/26 03:23:44;;;;;;;15.37;13.70;;;;;;;;;;4979941;28;24523;-62
2021/11/26 03:26:09;;;;;;;16.97;13.90;;;;;;;;;;4979914;28;24940;-62
2021/11/26 03:28:34;;;;;;;14.80;13.20;;;;;;;;;;4983241;28;25202;-62
2021/11/26 03:30:59;;;;;;;15.07;13.13;;;;;;;;;;4983655;28;24560;-63
2021/11/26 03:33:24;;;;;;;15.15;13.55;;;;;;;;;;4985400;28;24409;-63
2021/11/26 03:35:50;;;;;;;15.50;13.90;;;;;;;;;;4979901;28;24417;-62
2021/11/26 03:38:15;;;;;;;15.03;13.43;;;;;;;;;;4981852;28;24447;-62
2021/11/26 03:40:40;;;;;;;14.27;12.77;;;;;;;;;;4986326;28;24499;-62
2021/11/26 03:43:06;;;;;;;15.20;13.60;;;;;;;;;;4991895;28;24429;-62
2021/11/26 03:45:31;;;;;;;14.98;13.30;;;;;;;;;;4981317;28;24495;-62
2021/11/26 03:47:57;;;;;;;15.85;14.15;;;;;;;;;;4983759;28;24425;-63
2021/11/26 03:50:23;;;;;;;14.93;13.33;;;;;;;;;;4984280;28;24432;-62
2021/11/26 03:52:49;;;;;;;15.93;14.23;;;;;;;;;;4992557;28;24444;-62
2021/11/26 03:55:15;;;;;;;16.98;15.18;;;;;;;;;;4980053;28;24480;-61
2021/11/26 03:57:40;;;;;;;15.35;13.75;;;;;;;;;;4981451;28;24412;-60
2021/11/26 04:00:06;;;;;;;15.97;14.37;;;;;;;;;;4982977;28;25062;-63
2021/11/26 04:02:31;;;;;;;16.27;14.63;;;;;;;;;;4979266;28;24431;-60
2021/11/26 04:04:57;;;;;;;15.57;13.97;;;;;;;;;;4985736;28;24416;-60
2021/11/26 04:07:23;;;;;;;15.80;13.77;;;;;;;;;;4977926;28;24569;-60
2021/11/26 04:09:49;;;;;;;15.57;13.90;;;;;;;;;;4984673;28;24531;-61
2021/11/26 04:12:14;;;;;;;15.83;14.00;;;;;;;;;;4984133;28;24475;-61
2021/11/26 04:14:40;;;;;;;16.50;14.70;;;;;;;;;;4984183;28;24509;-61
2021/11/26 04:17:09;;;;;;;17.35;15.20;;;;;;;;;;4986902;28;24441;-61
2021/11/26 04:19:34;;;;;;;18.27;14.90;;;;;;;;;;4985363;28;24520;-61
2021/11/26 04:21:59;;;;;;;15.70;14.00;;;;;;;;;;4986877;28;24904;-62
2021/11/26 04:24:24;;;;;;;16.70;14.93;;;;;;;;;;4991164;28;24507;-62
2021/11/26 04:26:49;;;;;;;16.17;14.47;;;;;;;;;;4982821;28;24413;-61
2021/11/26 04:29:14;;;;;;;16.63;13.93;;;;;;;;;;4986566;28;24788;-62
2021/11/26 04:31:41;;;;;;;15.93;14.33;;;;;;;;;;4989865;28;24850;-61
2021/11/26 04:34:06;;;;;;;15.00;13.40;;;;;;;;;;4984498;28;24420;-62
2021/11/26 04:36:31;;;;;;;17.03;15.23;;;;;;;;;;4984707;28;24425;-62
2021/11/26 04:38:56;;;;;;;16.25;13.77;;;;;;;;;;4983871;28;25041;-62
2021/11/26 04:41:21;;;;;;;16.73;14.60;;;;;;;;;;4985694;28;24421;-62
2021/11/26 04:43:47;;;;;;;17.30;14.30;;;;;;;;;;4986839;28;24429;-62
2021/11/26 04:46:12;;;;;;;18.30;15.20;;;;;;;;;;4981118;28;24959;-61
2021/11/26 04:48:37;;;;;;;15.90;14.20;;;;;;;;;;4984042;28;24417;-61
2021/11/26 04:51:04;;;;;;;15.00;13.40;;;;;;;;;;4987733;28;24417;-61
2021/11/26 04:53:29;;;;;;;16.15;13.30;;;;;;;;;;4985849;28;24452;-61
2021/11/26 04:55:54;;;;;;;17.83;15.00;;;;;;;;;;4982805;28;24500;-61
2021/11/26 04:58:19;;;;;;;17.27;15.00;;;;;;;;;;4991299;28;24786;-62
2021/11/26 05:00:45;;;;;;;16.88;15.05;;;;;;;;;;4987965;28;25014;-61
2021/11/26 05:03:10;;;;;;;15.70;14.10;;;;;;;;;;4985788;28;24413;-62
2021/11/26 05:05:35;;;;;;;16.03;14.20;;;;;;;;;;4995912;28;24423;-61
2021/11/26 05:08:01;;;;;;;18.23;14.23;;;;;;;;;;4995017;28;24424;-62
2021/11/26 05:10:27;;;;;;;16.85;14.20;;;;;;;;;;4989010;28;24475;-61
2021/11/26 05:12:57;;;;;;;16.50;14.30;;;;;;;;;;4984417;28;24941;-62
2021/11/26 05:15:26;;;;;;;17.10;13.90;;;;;;;;;;4992579;28;24436;-61
2021/11/26 05:17:52;;;;;;;14.75;13.15;;;;;;;;;;4983613;28;24417;-61
2021/11/26 05:20:18;;;;;;;14.27;12.77;;;;;;;;;;4985372;28;24455;-61
2021/11/26 05:22:43;;;;;;;15.03;13.30;;;;;;;;;;4994149;28;24489;-62
2021/11/26 05:25:08;;;;;;;18.33;15.35;;;;;;;;;;4983318;28;24432;-63
2021/11/26 05:27:34;;;;;;;17.55;14.70;;;;;;;;;;4982267;28;24424;-63
2021/11/26 05:29:59;;;;;;;16.50;14.20;;;;;;;;;;4984109;28;24429;-62
2021/11/26 05:32:24;;;;;;;16.80;14.40;;;;;;;;;;4985243;28;25090;-62
2021/11/26 05:34:49;;;;;;;14.60;12.83;;;;;;;;;;4982236;28;25109;-63
2021/11/26 05:37:14;;;;;;;16.63;14.77;;;;;;;;;;4980269;28;24428;-64
2021/11/26 05:39:40;;;;;;;16.63;14.17;;;;;;;;;;4985162;28;25053;-63
2021/11/26 05:42:05;;;;;;;16.70;14.90;;;;;;;;;;4985822;28;24436;-63
2021/11/26 05:44:31;;;;;;;18.70;15.60;;;;;;;;;;4985974;28;24420;-63
2021/11/26 05:46:56;;;;;;;18.98;15.98;;;;;;;;;;4983482;28;24419;-63
2021/11/26 05:49:21;;;;;;;18.23;15.27;;;;;;;;;;4981438;28;24530;-63
2021/11/26 05:51:47;;;;;;;18.67;16.47;;;;;;;;;;4979275;28;24428;-63
2021/11/26 05:54:12;;;;;;;17.27;15.20;;;;;;;;;;4982027;28;24446;-64
2021/11/26 05:56:37;;;;;;;17.30;15.50;;;;;;;;;;4980731;28;26334;-63
2021/11/26 05:59:02;;;;;;;16.77;14.93;;;;;;;;;;4985883;28;24425;-63
2021/11/26 06:01:27;;;;;;;16.70;14.87;;;;;;;;;;5004612;28;24424;-63
2021/11/26 06:03:53;;;;;;;17.13;14.70;;;;;;;;;;4980214;28;24421;-63
2021/11/26 06:06:18;;;;;;;19.67;15.20;;;;;;;;;;4981517;28;24756;-63
2021/11/26 06:08:43;;;;;;;17.35;14.27;;;;;;;;;;4982731;28;24868;-63
2021/11/26 06:11:08;;;;;;;16.73;14.93;;;;;;;;;;4985282;28;24961;-63
2021/11/26 06:13:33;;;;;;;16.93;14.17;;;;;;;;;;4995370;28;24409;-62
2021/11/26 06:15:58;;;;;;;16.57;14.30;;;;;;;;;;4985125;28;25010;-62
2021/11/26 06:18:24;;;;;;;18.10;15.47;;;;;;;;;;4991323;28;24731;-62
2021/11/26 06:20:49;;;;;;;15.95;14.25;;;;;;;;;;4984363;28;24803;-62
2021/11/26 06:23:14;;;;;;;18.42;15.40;;;;;;;;;;4983497;28;24876;-62
2021/11/26 06:25:39;;;;;;;18.85;16.08;;;;;;;;;;4982623;28;24601;-62
2021/11/26 06:28:04;;;;;;;17.07;14.57;;;;;;;;;;4979411;28;24432;-63
2021/11/26 06:30:29;;;;;;;18.10;15.80;;;;;;;;;;4982433;28;24528;-63
2021/11/26 06:32:55;;;;;;;19.20;16.80;;;;;;;;;;4994159;28;24440;-63
2021/11/26 06:35:21;;;;;;;17.43;15.37;;;;;;;;;;4986556;28;25839;-63
2021/11/26 06:37:50;;;;;;;20.13;16.73;;;;;;;;;;4979927;28;24562;-63
2021/11/26 06:40:15;;;;;;;21.50;16.65;;;;;;;;;;4987719;28;24493;-63
2021/11/26 06:42:41;;;;;;;20.27;16.07;;;;;;;;;;4994306;28;24570;-63
2021/11/26 06:45:06;;;;;;;18.73;15.55;;;;;;;;;;4995244;28;24423;-63
2021/11/26 06:47:53;;;;;;;16.80;14.98;;;;;;;;;;4971837;28;24487;-62
2021/11/26 06:50:19;;;;;;;19.37;16.10;;;;;;;;;;4978345;28;24561;-63
2021/11/26 06:52:45;;;;;;;18.15;15.80;;;;;;;;;;4980773;28;25060;-63
2021/11/26 06:55:10;;;;;;;18.30;15.40;;;;;;;;;;4984986;28;24491;-63
2021/11/26 06:57:36;;;;;;;18.90;15.50;;;;;;;;;;4982618;28;24547;-63
2021/11/26 07:00:02;;;;;;;20.07;15.73;;;;;;;;;;4981233;28;24451;-62
2021/11/26 07:02:28;;;;;;;20.05;16.80;;;;;;;;;;4983274;28;24424;-62
2021/11/26 07:04:53;;;;;;;17.70;15.48;;;;;;;;;;4990021;28;25310;-62
2021/11/26 07:07:18;;;;;;;18.03;14.77;;;;;;;;;;4980600;28;24978;-60
2021/11/26 07:09:43;;;;;;;17.50;14.63;;;;;;;;;;4979334;28;25056;-60
2021/11/26 07:12:12;;;;;;;16.83;13.80;;;;;;;;;;4984030;28;24471;-60
2021/11/26 07:14:38;;;;;;;18.30;14.40;;;;;;;;;;4986676;28;24424;-60
2021/11/26 07:17:03;;;;;;;16.58;14.30;;;;;;;;;;4974274;28;24480;-60
2021/11/26 07:19:28;;;;;;;17.60;14.87;;;;;;;;;;4971197;28;24977;-61
2021/11/26 07:21:53;;;;;;;14.43;12.93;;;;;;;;;;4981863;28;25476;-63
2021/11/26 07:24:19;;;;;;;14.40;12.90;;;;;;;;;;4983378;28;24416;-63
2021/11/26 07:26:44;;;;;;;16.23;13.97;;;;;;;;;;4982449;28;24607;-62
2021/11/26 07:29:09;;;;;;;16.48;14.13;;;;;;;;;;4987086;28;24839;-65
2021/11/26 07:31:34;;;;;;;17.23;14.40;;;;;;;;;;4976278;28;24979;-65
2021/11/26 07:33:59;;;;;;;16.83;14.70;;;;;;;;;;4971346;28;24419;-65
2021/11/26 07:36:24;;;;;;;16.70;13.63;;;;;;;;;;4977942;28;24981;-64
2021/11/26 07:38:49;;;;;;;16.40;14.70;;;;;;;;;;4981446;28;24495;-65
2021/11/26 07:41:15;;;;;;;14.80;13.30;;;;;;;;;;4981710;28;24401;-64
2021/11/26 07:43:40;;;;;;;15.20;12.63;;;;;;;;;;4977729;28;24536;-64
2021/11/26 07:46:05;;;;;;;16.40;14.00;;;;;;;;;;4981696;28;24424;-64
2021/11/26 07:48:31;;;;;;;14.43;12.93;;;;;;;;;;4980166;28;24403;-64
2021/11/26 07:50:56;;;;;;;14.80;12.90;;;;;;;;;;4983584;28;24805;-64
2021/11/26 07:53:22;;;;;;;15.00;13.07;;;;;;;;;;4986552;28;25039;-62
2021/11/26 07:55:47;;;;;;;13.68;12.27;;;;;;;;;;4990099;28;24440;-61
2021/11/26 07:58:13;;;;;;;15.30;13.37;;;;;;;;;;4987157;28;24517;-62
2021/11/26 08:00:38;;;;;;;13.20;11.80;;;;;;;;;;4980855;28;24429;-64
2021/11/26 08:03:03;;;;;;;12.90;11.50;;;;;;;;;;4998776;28;24442;-62
2021/11/26 08:05:30;;;;;;;15.00;13.30;;;;;;;;;;4997538;28;24846;-62
2021/11/26 08:07:55;;;;;;;14.25;12.57;;;;;;;;;;4989872;28;24994;-62
2021/11/26 08:10:20;;;;;;;14.13;12.00;;;;;;;;;;4978810;28;24536;-62
2021/11/26 08:12:45;;;;;;;12.90;10.90;;;;;;;;;;4979421;28;24575;-62
2021/11/26 08:15:12;;;;;;;13.27;11.67;;;;;;;;;;4982692;28;24424;-62
2021/11/26 08:17:37;;;;;;;13.40;10.73;;;;;;;;;;4980102;28;24487;-62
2021/11/26 08:20:03;;;;;;;13.90;11.17;;;;;;;;;;4981302;28;24936;-62
2021/11/26 08:22:29;;;;;;;13.20;11.80;;;;;;;;;;4981598;28;24424;-64
2021/11/26 08:24:54;;;;;;;13.73;11.23;;;;;;;;;;4981973;28;24780;-64
2021/11/26 08:27:19;;;;;;;12.50;11.20;;;;;;;;;;4984779;28;24513;-63
2021/11/26 08:29:44;;;;;;;14.20;11.60;;;;;;;;;;4981745;28;24868;-63
2021/11/26 08:32:10;;;;;;;15.77;12.77;;;;;;;;;;4984122;28;24497;-63
2021/11/26 08:34:35;;;;;;;14.20;12.53;;;;;;;;;;4979693;28;24939;-63
2021/11/26 08:37:00;;;;;;;14.02;10.90;;;;;;;;;;4977704;28;24467;-63
2021/11/26 08:39:25;;;;;;;12.97;11.60;;;;;;;;;;4979534;28;25219;-63
2021/11/26 08:41:51;;;;;;;12.00;10.80;;;;;;;;;;4983185;28;24740;-63
2021/11/26 08:44:16;;;;;;;14.07;11.85;;;;;;;;;;4982589;28;24512;-63
2021/11/26 08:46:41;;;;;;;11.73;10.52;;;;;;;;;;4978419;28;24421;-63
2021/11/26 08:49:06;;;;;;;13.90;11.85;;;;;;;;;;4984611;28;24425;-63
2021/11/26 08:51:37;;;;;;;11.97;10.60;;;;;;;;;;4983527;28;25110;-63
2021/11/26 08:54:03;;;;;;;13.43;10.90;;;;;;;;;;4986204;28;24421;-63
2021/11/26 08:56:28;;;;;;;13.10;11.27;;;;;;;;;;4983621;28;24523;-63
2021/11/26 08:58:53;;;;;;;13.10;11.03;;;;;;;;;;4981122;28;24463;-63
2021/11/26 09:01:18;;;;;;;15.07;11.60;;;;;;;;;;4981643;28;24532;-63
2021/11/26 09:03:44;;;;;;;12.50;10.93;;;;;;;;;;5002089;28;24486;-62
2021/11/26 09:06:10;;;;;;;12.23;10.00;;;;;;;;;;4995081;28;24516;-63
2021/11/26 09:08:36;;;;;;;11.90;10.20;;;;;;;;;;4988628;28;25029;-63
2021/11/26 09:11:01;;;;;;;12.35;10.50;;;;;;;;;;4984686;28;24467;-63
2021/11/26 09:13:26;;;;;;;10.50;9.40;;;;;;;;;;4983025;28;24401;-63
2021/11/26 09:15:52;;;;;;;12.27;11.03;;;;;;;;;;4985992;28;24483;-62
2021/11/26 09:18:17;;;;;;;11.20;10.00;;;;;;;;;;4987153;28;24819;-62
2021/11/26 09:20:43;;;;;;;11.90;10.50;;;;;;;;;;4986316;28;24435;-62
2021/11/26 09:23:09;;;;;;;11.10;10.00;;;;;;;;;;5002281;28;24440;-62
2021/11/26 09:25:35;;;;;;;12.17;10.07;;;;;;;;;;4984183;28;24464;-63
2021/11/26 09:28:00;;;;;;;11.07;9.80;;;;;;;;;;4985833;28;25026;-62
2021/11/26 09:30:26;;;;;;;11.32;9.80;;;;;;;;;;4994691;28;24519;-62
2021/11/26 09:32:51;;;;;;;12.73;11.18;;;;;;;;;;4986369;28;24957;-62
2021/11/26 09:35:17;;;;;;;12.80;9.70;;;;;;;;;;4989946;28;24421;-64
2021/11/26 09:37:42;;;;;;;12.13;10.73;;;;;;;;;;4989739;28;24483;-62
2021/11/26 09:40:08;;;;;;;12.37;11.07;;;;;;;;;;4985381;28;24780;-62
2021/11/26 09:42:34;;;;;;;11.65;9.77;;;;;;;;;;4988738;28;24472;-63
2021/11/26 09:45:00;;;;;;;11.97;10.77;;;;;;;;;;4982347;28;24421;-62
2021/11/26 09:47:26;;;;;;;11.70;9.87;;;;;;;;;;4981731;28;24512;-63
2021/11/26 09:49:51;;;;;;;12.40;10.63;;;;;;;;;;4980527;28;24468;-63
2021/11/26 09:52:16;;;;;;;11.55;10.35;;;;;;;;;;4989158;28;24417;-62
2021/11/26 09:54:43;;;;;;;12.90;11.55;;;;;;;;;;4988188;28;25069;-63
2021/11/26 09:57:09;;;;;;;12.85;11.18;;;;;;;;;;4986668;28;24416;-63
2021/11/26 09:59:35;;;;;;;12.43;10.80;;;;;;;;;;4978344;28;24989;-63
2021/11/26 10:02:11;;;;;;;10.70;9.63;;;;;;;;;;4982359;28;24496;-63
2021/11/26 10:04:36;;;;;;;12.60;10.63;;;;;;;;;;4983398;28;24460;-63
2021/11/26 10:07:02;;;;;;;12.47;10.90;;;;;;;;;;4989602;28;24420;-63
2021/11/26 10:09:27;;;;;;;10.40;9.40;;;;;;;;;;4986454;28;24784;-63
2021/11/26 10:11:53;;;;;;;11.93;10.30;;;;;;;;;;4981662;28;24423;-63
2021/11/26 10:14:21;;;;;;;10.38;9.27;;;;;;;;;;4985320;28;24428;-63
2021/11/26 10:16:48;;;;;;;10.40;9.30;;;;;;;;;;4983053;28;25405;-63
2021/11/26 10:19:14;;;;;;;11.05;9.73;;;;;;;;;;4982973;28;24421;-63
2021/11/26 10:21:39;;;;;;;11.82;10.50;;;;;;;;;;4975714;28;25034;-62
2021/11/26 10:24:12;;;;;;;13.67;10.90;;;;;;;;;;4972281;28;24460;-62
2021/11/26 10:26:37;;;;;;;10.68;9.57;;;;;;;;;;4985801;28;24433;-62
2021/11/26 10:29:03;;;;;;;10.83;9.73;;;;;;;;;;4984264;28;24487;-64
2021/11/26 10:31:29;;;;;;;10.80;9.50;;;;;;;;;;4982418;28;24528;-62
2021/11/26 10:33:55;;;;;;;12.07;10.60;;;;;;;;;;4981920;28;24504;-65
2021/11/26 10:36:20;;;;;;;10.90;9.20;;;;;;;;;;4979110;28;24401;-64
2021/11/26 10:38:45;;;;;;;10.73;9.63;;;;;;;;;;4984211;28;24871;-64
2021/11/26 10:41:13;;;;;;;10.18;8.85;;;;;;;;;;4984955;28;24401;-64
2021/11/26 10:48:57;;;;;;;8.90;8.00;;;;;;;;;;4980611;28;24481;-64
2021/11/26 10:51:56;;;;;;;9.27;7.95;;;;;;;;;;4964755;28;24496;-64
2021/11/26 10:59:47;;;;;;;8.48;7.30;;;;;;;;;;4979931;28;25181;-64
2021/11/26 11:02:23;;;;;;;8.15;6.78;;;;;;;;;;4984055;28;25038;-64
2021/11/26 11:04:48;;;;;;;7.72;6.85;;;;;;;;;;4982341;28;24501;-64
2021/11/26 11:07:14;;;;;;;8.00;7.20;;;;;;;;;;4983610;28;25009;-64
2021/11/26 11:09:44;;;;;;;7.63;6.10;;;;;;;;;;4982023;28;24977;-62
2021/11/26 11:12:09;;;;;;;7.80;6.80;;;;;;;;;;4981729;28;24424;-63
2021/11/26 11:14:34;;;;;;;6.40;5.80;;;;;;;;;;4979323;28;24463;-62
2021/11/26 11:17:00;;;;;;;6.27;5.60;;;;;;;;;;4982848;28;24415;-62
2021/11/26 11:19:25;;;;;;;6.30;5.50;;;;;;;;;;4982215;28;24508;-63
2021/11/26 11:21:52;;;;;;;5.80;5.20;;;;;;;;;;4982502;28;24397;-64
2021/11/26 11:24:17;;;;;;;6.70;5.78;;;;;;;;;;4983269;28;24421;-62
2021/11/26 11:26:47;;;;;;;6.10;5.47;;;;;;;;;;4979655;28;24432;-62
2021/11/26 11:29:12;;;;;;;5.15;4.65;;;;;;;;;;4980745;28;24444;-62
2021/11/26 11:31:41;;;;;;;5.20;4.70;;;;;;;;;;4981896;28;24425;-63
2021/11/26 11:34:07;;;;;;;4.47;4.07;;;;;;;;;;4981096;28;25016;-63
2021/11/26 11:36:33;;;;;;;4.78;4.30;;;;;;;;;;4981743;28;24520;-63
2021/11/26 11:38:59;;;;;;;4.85;4.20;;;;;;;;;;4981911;28;24405;-63
2021/11/26 11:41:24;;;;;;;4.53;3.90;;;;;;;;;;4982315;28;24416;-63
2021/11/26 11:43:49;;;;;;;4.10;3.70;;;;;;;;;;4983726;28;24388;-63
2021/11/26 11:46:16;;;;;;;4.73;3.67;;;;;;;;;;4983064;28;25037;-63
2021/11/26 11:48:52;;;;;;;3.30;3.00;;;;;;;;;;4980341;28;24424;-63
2021/11/26 11:51:29;;;;;;;3.95;3.55;;;;;;;;;;4983481;28;24401;-63
2021/11/26 11:54:10;;;;;;;3.80;3.40;;;;;;;;;;4981219;28;24994;-63
2021/11/26 11:56:50;;;;;;;3.72;3.33;;;;;;;;;;4981257;28;24433;-63
2021/11/26 11:59:24;;;;;;;3.30;2.90;;;;;;;;;;4983133;28;24472;-63
2021/11/26 12:01:49;;;;;;;3.50;3.20;;;;;;;;;;4981396;28;24390;-63
2021/11/26 12:04:16;;;;;;;3.20;2.90;;;;;;;;;;4983036;28;24432;-64
2021/11/26 12:06:42;;;;;;;3.80;3.50;;;;;;;;;;4979471;28;24499;-62
2021/11/26 12:09:18;;;;;;;3.10;2.75;;;;;;;;;;4980430;28;24435;-62
2021/11/26 12:11:44;;;;;;;3.40;3.10;;;;;;;;;;4982840;28;24413;-62
2021/11/26 12:14:11;;;;;;;3.78;3.22;;;;;;;;;;4982543;28;24447;-62
2021/11/26 12:16:46;;;;;;;3.65;3.10;;;;;;;;;;4981510;28;24401;-62
2021/11/26 12:19:21;;;;;;;3.30;3.00;;;;;;;;;;4979068;28;24833;-62
2021/11/26 12:21:47;;;;;;;3.30;3.00;;;;;;;;;;4983272;28;24432;-62
2021/11/26 12:24:25;;;;;;;3.10;2.70;;;;;;;;;;4984027;28;24487;-62
2021/11/26 12:26:56;;;;;;;3.30;3.00;;;;;;;;;;4982305;28;25059;-63
2021/11/26 12:29:29;;;;;;;3.30;3.00;;;;;;;;;;5007647;28;24429;-62
2021/11/26 12:32:04;;;;;;;3.45;3.00;;;;;;;;;;4968382;28;24466;-62
2021/11/26 12:34:37;;;;;;;3.58;3.10;;;;;;;;;;4980232;28;24555;-62
2021/11/26 12:37:02;;;;;;;3.28;2.97;;;;;;;;;;4984842;28;24447;-62
2021/11/26 12:39:30;;;;;;;3.90;3.17;;;;;;;;;;4983029;28;24712;-62
2021/11/26 12:41:57;;;;;;;3.88;3.22;;;;;;;;;;4981175;28;24495;-62
2021/11/26 12:44:23;;;;;;;3.38;3.08;;;;;;;;;;4984189;28;24513;-62
2021/11/26 12:46:54;;;;;;;3.42;3.13;;;;;;;;;;4983731;28;24421;-62
2021/11/26 12:51:50;;;;;;;3.60;3.30;;;;;;;;;;4977801;28;24815;-63
2021/11/26 12:54:34;;;;;;;4.38;3.00;;;;;;;;;;4977703;28;24412;-63
2021/11/26 12:57:01;;;;;;;4.22;3.40;;;;;;;;;;4982785;28;25018;-63
2021/11/26 12:59:35;;;;;;;3.30;3.00;;;;;;;;;;4980461;28;24467;-63
2021/11/26 13:02:01;;;;;;;3.60;3.30;;;;;;;;;;4973898;28;24520;-63
2021/11/26 13:04:26;;;;;;;3.72;3.42;;;;;;;;;;4977446;28;24559;-63
2021/11/26 13:07:07;;;;;;;3.33;2.80;;;;;;;;;;4977928;28;24935;-63
2021/11/26 13:09:42;;;;;;;3.80;3.50;;;;;;;;;;4977701;28;24436;-62
2021/11/26 13:12:08;;;;;;;4.68;3.50;;;;;;;;;;4982878;28;24521;-63
2021/11/26 13:14:50;;;;;;;4.50;3.90;;;;;;;;;;4974667;28;24832;-62
2021/11/26 13:17:16;;;;;;;3.30;3.00;;;;;;;;;;4977617;28;25033;-62
2021/11/26 13:19:42;;;;;;;3.73;3.00;;;;;;;;;;4980990;28;24779;-62
2021/11/26 13:22:07;;;;;;;2.67;2.47;;;;;;;;;;4980331;28;24429;-62
2021/11/26 13:24:32;;;;;;;2.70;2.50;;;;;;;;;;4979642;28;24511;-62
2021/11/26 13:26:58;;;;;;;3.60;3.30;;;;;;;;;;4963410;28;25121;-63
2021/11/26 13:29:24;;;;;;;5.67;3.80;;;;;;;;;;4958398;28;24454;-64
2021/11/26 13:31:49;;;;;;;3.70;3.37;;;;;;;;;;4964085;28;24947;-62
2021/11/26 13:34:14;;;;;;;3.50;3.20;;;;;;;;;;4979066;28;25502;-62
2021/11/26 13:36:39;;;;;;;3.33;3.03;;;;;;;;;;4977230;28;24986;-62
2021/11/26 13:39:11;;;;;;;3.80;3.40;;;;;;;;;;4981488;28;24451;-62
2021/11/26 13:41:37;;;;;;;4.00;3.40;;;;;;;;;;4980935;28;24397;-63
2021/11/26 13:44:05;;;;;;;4.43;3.95;;;;;;;;;;4981925;28;24816;-62
2021/11/26 13:46:35;;;;;;;4.40;3.88;;;;;;;;;;4976597;28;24436;-62
2021/11/26 13:49:02;;;;;;;4.40;3.95;;;;;;;;;;4979351;28;24420;-63
2021/11/26 13:51:29;;;;;;;4.37;3.97;;;;;;;;;;4978775;28;25742;-62
2021/11/26 13:53:55;;;;;;;5.13;4.55;;;;;;;;;;4982533;28;24420;-62
2021/11/26 13:56:27;;;;;;;5.47;4.53;;;;;;;;;;4980680;28;25176;-63
2021/11/26 13:58:54;;;;;;;7.03;5.20;;;;;;;;;;4975631;28;24853;-62
2021/11/26 14:01:23;;;;;;;6.15;4.25;;;;;;;;;;4977853;28;24421;-62
2021/11/26 14:03:54;;;;;;;5.90;5.30;;;;;;;;;;4982454;28;24479;-63
2021/11/26 14:06:20;;;;;;;7.63;4.80;;;;;;;;;;4982271;28;24990;-63
2021/11/26 14:08:45;;;;;;;7.00;6.15;;;;;;;;;;4980515;28;24389;-62
2021/11/26 14:11:10;;;;;;;6.67;5.97;;;;;;;;;;4978194;28;24843;-62
2021/11/26 14:13:35;;;;;;;6.40;5.80;;;;;;;;;;4979259;28;24463;-62
2021/11/26 14:16:02;;;;;;;5.57;4.83;;;;;;;;;;4981822;28;24571;-62
2021/11/26 14:18:27;;;;;;;6.45;5.40;;;;;;;;;;4984931;28;24455;-60
2021/11/26 14:21:00;;;;;;;6.35;5.85;;;;;;;;;;4980714;28;24839;-61
2021/11/26 14:23:25;;;;;;;5.93;5.32;;;;;;;;;;4978501;28;24486;-63
2021/11/26 14:25:50;;;;;;;5.80;5.20;;;;;;;;;;4981583;28;24792;-63
2021/11/26 14:28:18;;;;;;;5.70;5.10;;;;;;;;;;4999598;28;24405;-64
2021/11/26 14:30:44;;;;;;;4.68;4.25;;;;;;;;;;4983108;28;24436;-64
2021/11/26 14:33:11;;;;;;;4.80;4.40;;;;;;;;;;4981684;28;24381;-64